Time;durP1;ratioP1;P1;durP2;ratioP2;P2;SDS_P1;SDS_P2;PMS_P1;PMS_P2;Temp;Humidity;BMP_temperature;BMP_pressure;BME280_temperature;BME280_humidity;BME280_pressure;Samples;Min_cycle;Max_cycle;Signal;HPM_P1;HPM_P2
2023/01/25 00:00:39;;;;;;;21.60;13.50;;;;;;;2.65;76.96;98216.41;6247104;23;20016;-75
2023/01/25 00:03:06;;;;;;;22.80;13.07;;;;;;;2.66;77.09;98210.31;6246324;23;20031;-76
2023/01/25 00:05:34;;;;;;;21.25;12.27;;;;;;;2.65;76.85;98206.94;6245979;23;20023;-75
2023/01/25 00:08:02;;;;;;;22.65;13.55;;;;;;;2.63;77.13;98205.38;6245097;23;20047;-75
2023/01/25 00:10:29;;;;;;;20.73;11.88;;;;;;;2.64;77.46;98204.44;6245819;23;20023;-75
2023/01/25 00:12:58;;;;;;;21.20;12.85;;;;;;;2.65;77.00;98195.81;6246027;23;20026;-75
2023/01/25 00:15:26;;;;;;;21.33;12.00;;;;;;;2.65;77.01;98200.94;6245547;23;20480;-75
2023/01/25 00:17:53;;;;;;;23.50;14.57;;;;;;;2.65;77.14;98198.38;6244963;23;20032;-75
2023/01/25 00:20:21;;;;;;;17.52;11.40;;;;;;;2.68;77.63;98211.06;6245867;23;20048;-75
2023/01/25 00:22:48;;;;;;;19.20;11.38;;;;;;;2.75;77.88;98208.94;6245707;23;20020;-75
2023/01/25 00:25:16;;;;;;;16.38;10.85;;;;;;;2.80;77.94;98204.31;6245554;23;20195;-75
2023/01/25 00:27:43;;;;;;;17.70;11.05;;;;;;;2.83;77.50;98204.97;6245363;23;20020;-75
2023/01/25 00:30:13;;;;;;;19.70;11.80;;;;;;;2.83;76.83;98209.31;6245481;23;20078;-75
2023/01/25 00:32:57;;;;;;;19.10;11.68;;;;;;;2.84;76.80;98208.38;6245610;23;20030;-75
2023/01/25 00:35:31;;;;;;;15.02;9.77;;;;;;;2.83;76.93;98204.16;6245403;23;20463;-75
2023/01/25 00:38:01;;;;;;;17.65;10.55;;;;;;;2.83;76.36;98204.16;6244370;23;20056;-75
2023/01/25 00:40:29;;;;;;;14.50;8.88;;;;;;;2.83;76.47;98204.16;6245821;23;20016;-76
2023/01/25 00:42:59;;;;;;;13.40;8.60;;;;;;;2.82;76.58;98202.47;6245798;23;20020;-74
2023/01/25 00:45:28;;;;;;;15.15;10.23;;;;;;;2.79;76.27;98203.50;6245401;23;20024;-75
2023/01/25 00:47:56;;;;;;;15.70;9.73;;;;;;;2.75;76.33;98199.44;6243983;23;20025;-75
2023/01/25 00:50:23;;;;;;;16.30;10.32;;;;;;;2.71;76.26;98197.16;6245311;23;20020;-75
2023/01/25 00:52:51;;;;;;;15.55;9.70;;;;;;;2.67;76.47;98193.97;6245294;23;20016;-75
2023/01/25 00:55:18;;;;;;;13.38;8.90;;;;;;;2.65;76.43;98198.38;6245311;23;20107;-75
2023/01/25 00:57:46;;;;;;;15.88;10.27;;;;;;;2.61;76.26;98191.75;6244482;23;20020;-75
2023/01/25 01:00:15;;;;;;;16.83;10.77;;;;;;;2.55;76.45;98192.94;6244835;23;20020;-75
2023/01/25 01:02:44;;;;;;;15.93;10.52;;;;;;;2.53;76.39;98197.34;6245759;23;20020;-75
2023/01/25 01:05:11;;;;;;;14.35;9.60;;;;;;;2.53;76.49;98206.84;6245557;23;20020;-75
2023/01/25 01:07:39;;;;;;;14.50;9.38;;;;;;;2.53;76.42;98201.69;6245592;23;20078;-75
2023/01/25 01:10:07;;;;;;;13.43;8.93;;;;;;;2.55;76.41;98199.84;6244373;23;20020;-75
2023/01/25 01:12:35;;;;;;;14.45;9.35;;;;;;;2.57;76.64;98198.81;6244929;23;20096;-75
2023/01/25 01:15:04;;;;;;;15.88;10.18;;;;;;;2.59;76.48;98196.16;6245478;23;20020;-75
2023/01/25 01:17:32;;;;;;;17.05;10.88;;;;;;;2.54;75.83;98187.91;6244750;23;20329;-75
2023/01/25 01:20:01;;;;;;;15.27;9.82;;;;;;;2.47;76.29;98198.56;6244763;23;20417;-75
2023/01/25 01:22:28;;;;;;;14.25;9.10;;;;;;;2.44;75.98;98193.56;6246393;23;20020;-75
2023/01/25 01:24:56;;;;;;;14.90;8.88;;;;;;;2.38;76.23;98203.41;6246506;23;20027;-75
2023/01/25 01:27:23;;;;;;;13.75;9.10;;;;;;;2.33;76.37;98198.53;6246417;23;20030;-74
2023/01/25 01:29:51;;;;;;;13.25;8.65;;;;;;;2.31;76.16;98197.81;6244763;23;20020;-75
2023/01/25 01:32:18;;;;;;;16.13;9.57;;;;;;;2.30;76.35;98201.31;6245155;23;20019;-75
2023/01/25 01:34:46;;;;;;;13.57;8.93;;;;;;;2.28;76.46;98195.41;6245322;23;20043;-75
2023/01/25 01:37:15;;;;;;;14.65;9.35;;;;;;;2.26;76.42;98194.69;6245652;23;20051;-75
2023/01/25 01:39:42;;;;;;;14.55;8.77;;;;;;;2.26;76.65;98199.81;6244652;23;20024;-75
2023/01/25 01:42:10;;;;;;;14.80;9.18;;;;;;;2.26;76.20;98194.69;6245361;23;20353;-75
2023/01/25 01:44:45;;;;;;;16.45;9.25;;;;;;;2.23;76.33;98200.00;6245376;23;20020;-75
2023/01/25 01:47:17;;;;;;;14.57;9.02;;;;;;;2.21;76.15;98202.69;6245369;23;20051;-75
2023/01/25 01:49:52;;;;;;;15.88;9.70;;;;;;;2.18;76.58;98207.97;6244854;23;20103;-75
2023/01/25 01:52:24;;;;;;;13.98;8.73;;;;;;;2.17;76.56;98197.81;6245122;23;20027;-75
2023/01/25 01:54:56;;;;;;;12.85;8.32;;;;;;;2.16;76.32;98196.94;6245238;23;20452;-75
2023/01/25 01:57:28;;;;;;;12.10;8.15;;;;;;;2.16;76.66;98194.38;6244689;23;20031;-74
2023/01/25 02:00:02;;;;;;;14.50;8.93;;;;;;;2.14;76.40;98196.22;6244038;23;20680;-75
2023/01/25 02:02:29;;;;;;;15.05;8.68;;;;;;;2.13;76.50;98193.75;6247133;23;20020;-75
2023/01/25 02:05:04;;;;;;;17.17;9.40;;;;;;;2.12;76.93;98195.50;6247175;23;20090;-75
2023/01/25 02:07:35;;;;;;;15.50;9.40;;;;;;;2.15;76.85;98189.34;6246812;23;20024;-75
2023/01/25 02:10:05;;;;;;;14.73;9.38;;;;;;;2.17;76.83;98196.03;6246130;23;20020;-75
2023/01/25 02:12:32;;;;;;;15.68;9.63;;;;;;;2.23;77.58;98187.13;6246592;23;20020;-75
2023/01/25 02:15:00;;;;;;;13.45;8.75;;;;;;;2.25;76.93;98188.72;6246921;23;20060;-75
2023/01/25 02:17:31;;;;;;;13.75;8.65;;;;;;;2.24;76.57;98188.78;6246486;23;20027;-75
2023/01/25 02:20:06;;;;;;;14.05;8.55;;;;;;;2.22;76.64;98188.88;6246200;23;20021;-75
2023/01/25 02:22:43;;;;;;;14.32;8.77;;;;;;;2.22;76.82;98183.72;6247211;23;20087;-75
2023/01/25 02:25:14;;;;;;;14.98;9.02;;;;;;;2.25;77.05;98190.44;6246469;23;20656;-75
2023/01/25 02:27:46;;;;;;;16.13;10.25;;;;;;;2.26;76.97;98185.19;6244367;23;20030;-75
2023/01/25 02:30:14;;;;;;;15.52;9.82;;;;;;;2.26;76.90;98192.94;6244778;23;20111;-75
2023/01/25 02:32:42;;;;;;;12.90;8.02;;;;;;;2.25;76.63;98188.72;6244302;23;20095;-75
2023/01/25 02:35:18;;;;;;;13.73;9.10;;;;;;;2.23;76.64;98181.97;6244077;23;20051;-75
2023/01/25 02:37:46;;;;;;;16.10;9.95;;;;;;;2.20;76.46;98184.72;6243324;23;20016;-74
2023/01/25 02:40:15;;;;;;;17.10;9.55;;;;;;;2.18;76.84;98178.84;6244678;23;20027;-75
2023/01/25 02:42:44;;;;;;;17.20;10.32;;;;;;;2.17;76.37;98184.94;6247084;23;20460;-75
2023/01/25 02:45:16;;;;;;;17.13;10.05;;;;;;;2.17;76.70;98182.34;6244546;23;20460;-75
2023/01/25 02:47:43;;;;;;;15.90;9.32;;;;;;;2.20;77.21;98170.09;6243585;23;20112;-75
2023/01/25 02:50:11;;;;;;;16.73;10.38;;;;;;;2.25;77.36;98177.56;6243912;23;20020;-75
2023/01/25 02:52:42;;;;;;;16.83;9.73;;;;;;;2.27;77.00;98170.56;6245625;23;20479;-75
2023/01/25 02:55:10;;;;;;;19.38;10.50;;;;;;;2.27;76.73;98175.72;6246405;23;20592;-75
2023/01/25 02:57:39;;;;;;;15.27;9.45;;;;;;;2.26;77.05;98174.06;6244978;23;20022;-75
2023/01/25 03:00:08;;;;;;;14.45;8.77;;;;;;;2.27;76.51;98173.16;6242859;23;20020;-75
2023/01/25 03:02:35;;;;;;;17.38;10.20;;;;;;;2.28;76.56;98169.66;6243904;23;20020;-75
2023/01/25 03:05:03;;;;;;;16.00;10.20;;;;;;;2.30;76.78;98162.69;6243909;23;20031;-75
2023/01/25 03:07:31;;;;;;;14.20;8.30;;;;;;;2.33;76.46;98157.34;6243647;23;20095;-75
2023/01/25 03:09:58;;;;;;;13.05;8.32;;;;;;;2.35;76.28;98152.94;6243030;23;20099;-75
2023/01/25 03:12:26;;;;;;;15.10;8.70;;;;;;;2.37;76.41;98151.09;6243339;23;20012;-75
2023/01/25 03:14:55;;;;;;;13.15;7.55;;;;;;;2.37;76.03;98158.81;6246222;23;20027;-75
2023/01/25 03:17:23;;;;;;;14.80;8.32;;;;;;;2.34;76.43;98161.59;6246222;23;20020;-75
2023/01/25 03:19:52;;;;;;;14.23;8.48;;;;;;;2.32;76.31;98152.28;6244686;23;20020;-75
2023/01/25 03:22:20;;;;;;;11.43;7.40;;;;;;;2.29;76.57;98158.44;6245746;23;20404;-75
2023/01/25 03:24:48;;;;;;;12.13;7.70;;;;;;;2.28;76.46;98151.66;6246397;23;20047;-75
2023/01/25 03:27:17;;;;;;;13.88;8.38;;;;;;;2.28;77.01;98156.78;6245581;23;20027;-75
2023/01/25 03:29:45;;;;;;;13.93;7.78;;;;;;;2.28;76.57;98145.69;6244092;23;20102;-75
2023/01/25 03:32:14;;;;;;;10.80;7.05;;;;;;;2.22;76.24;98141.72;6245870;23;20345;-75
2023/01/25 03:34:42;;;;;;;12.02;6.95;;;;;;;2.18;76.12;98135.91;6246456;23;20024;-75
2023/01/25 03:37:09;;;;;;;8.77;6.10;;;;;;;2.18;76.42;98129.94;6245975;23;20055;-76
2023/01/25 03:39:37;;;;;;;8.60;5.95;;;;;;;2.17;76.23;98133.44;6244703;23;20461;-75
2023/01/25 03:42:04;;;;;;;9.82;6.40;;;;;;;2.12;75.81;98130.28;6246043;23;20021;-75
2023/01/25 03:44:32;;;;;;;10.52;6.88;;;;;;;2.10;76.01;98126.97;6246189;23;20076;-75
2023/01/25 03:46:59;;;;;;;8.65;5.70;;;;;;;2.05;75.57;98125.50;6238676;22;20013;-81
2023/01/25 03:49:28;;;;;;;9.38;5.80;;;;;;;1.98;75.60;98134.50;6222192;23;20021;-81
2023/01/25 03:51:57;;;;;;;10.23;6.55;;;;;;;1.92;75.98;98136.63;6221822;23;20411;-82
2023/01/25 03:54:25;;;;;;;10.20;6.40;;;;;;;1.90;75.95;98136.69;6222640;23;20021;-80
2023/01/25 03:56:52;;;;;;;11.05;6.82;;;;;;;1.91;75.98;98133.22;6225454;23;20360;-84
2023/01/25 03:59:20;;;;;;;10.85;6.65;;;;;;;1.88;75.89;98138.56;6252741;23;20024;-82
2023/01/25 04:01:48;;;;;;;9.75;6.80;;;;;;;1.84;76.07;98140.47;6251221;23;20514;-79
2023/01/25 04:04:15;;;;;;;9.52;6.60;;;;;;;1.78;76.05;98129.72;6252492;23;20387;-80
2023/01/25 04:06:44;;;;;;;10.82;7.00;;;;;;;1.75;76.82;98130.72;6252719;23;20020;-82
2023/01/25 04:09:13;;;;;;;11.38;7.28;;;;;;;1.76;76.49;98123.81;6251901;23;20055;-82
2023/01/25 04:11:40;;;;;;;13.90;7.93;;;;;;;1.75;76.88;98122.16;6252362;23;20024;-81
2023/01/25 04:14:10;;;;;;;11.95;7.35;;;;;;;1.74;76.76;98125.66;6252049;23;20024;-82
2023/01/25 04:16:37;;;;;;;12.63;7.45;;;;;;;1.72;76.65;98117.19;6253628;23;20029;-78
2023/01/25 04:19:05;;;;;;;12.38;6.85;;;;;;;1.72;76.52;98127.50;6250662;23;20078;-81
2023/01/25 04:21:33;;;;;;;10.80;6.72;;;;;;;1.69;76.71;98122.53;6251805;23;20016;-80
2023/01/25 04:24:02;;;;;;;11.00;6.90;;;;;;;1.62;76.53;98117.75;6251107;23;20351;-82
2023/01/25 04:26:29;;;;;;;11.20;7.43;;;;;;;1.57;76.86;98113.75;6251338;23;20024;-82
2023/01/25 04:28:57;;;;;;;12.27;7.47;;;;;;;1.53;77.04;98107.97;6249713;23;20467;-80
2023/01/25 04:31:25;;;;;;;13.80;8.85;;;;;;;1.53;77.12;98104.56;6251133;23;20024;-79
2023/01/25 04:33:53;;;;;;;12.55;7.80;;;;;;;1.55;77.08;98115.59;6252020;23;20027;-80
2023/01/25 04:36:20;;;;;;;13.40;7.85;;;;;;;1.57;77.49;98103.47;6251095;23;20020;-80
2023/01/25 04:38:48;;;;;;;13.98;8.23;;;;;;;1.59;77.15;98101.66;6249354;23;20428;-79
2023/01/25 04:41:17;;;;;;;15.25;8.52;;;;;;;1.60;77.53;98099.00;6251117;23;20016;-78
2023/01/25 04:43:44;;;;;;;13.50;8.38;;;;;;;1.63;77.58;98098.81;6250841;23;20487;-77
2023/01/25 04:46:12;;;;;;;13.00;8.13;;;;;;;1.64;77.19;98100.47;6251420;23;20054;-78
2023/01/25 04:48:40;;;;;;;15.40;8.77;;;;;;;1.67;76.77;98098.63;6249654;23;20024;-80
2023/01/25 04:51:08;;;;;;;15.75;9.05;;;;;;;1.65;76.83;98093.56;6250354;23;20020;-80
2023/01/25 04:53:36;;;;;;;13.88;8.65;;;;;;;1.65;77.37;98091.00;6249833;23;20020;-81
2023/01/25 04:56:04;;;;;;;14.52;8.80;;;;;;;1.66;76.79;98095.22;6249093;23;20397;-78
2023/01/25 04:58:32;;;;;;;15.95;9.13;;;;;;;1.64;76.78;98090.19;6256505;23;20064;-83
2023/01/25 05:01:01;;;;;;;13.82;8.60;;;;;;;1.60;76.75;98078.41;6253675;23;20020;-84
2023/01/25 05:03:28;;;;;;;14.23;8.10;;;;;;;1.58;76.90;98085.38;6254346;23;20031;-83
2023/01/25 05:05:56;;;;;;;14.00;8.57;;;;;;;1.58;77.34;98077.69;6254601;23;20024;-84
2023/01/25 05:08:24;;;;;;;15.45;8.93;;;;;;;1.60;77.11;98082.75;6252324;23;20531;-84
2023/01/25 05:10:52;;;;;;;15.68;8.75;;;;;;;1.62;77.39;98076.59;6254744;23;20026;-83
2023/01/25 05:13:20;;;;;;;15.30;9.52;;;;;;;1.63;77.21;98085.94;6254632;23;20104;-86
2023/01/25 05:15:49;;;;;;;15.52;8.75;;;;;;;1.68;77.24;98079.69;6254867;23;20095;-81
2023/01/25 05:18:16;;;;;;;17.60;9.57;;;;;;;1.67;76.87;98083.22;6252191;23;20071;-84
2023/01/25 05:20:44;;;;;;;15.45;9.65;;;;;;;1.67;76.92;98083.22;6253825;23;20020;-82
2023/01/25 05:23:11;;;;;;;17.42;10.20;;;;;;;1.64;76.83;98074.75;6253726;23;20026;-84
2023/01/25 05:28:24;;;;;;;16.98;10.23;;;;;;;1.61;77.38;98084.38;6252744;23;20020;-82
2023/01/25 05:30:53;;;;;;;17.52;10.27;;;;;;;1.58;77.11;98087.97;6253529;23;20020;-81
2023/01/25 05:33:20;;;;;;;15.70;9.50;;;;;;;1.60;77.41;98083.56;6253946;23;20043;-83
2023/01/25 05:35:48;;;;;;;17.92;10.60;;;;;;;1.62;77.55;98079.16;6254951;23;20050;-81
2023/01/25 05:38:16;;;;;;;17.70;10.38;;;;;;;1.65;77.50;98073.81;6255007;23;20026;-86
2023/01/25 05:40:43;;;;;;;18.73;11.00;;;;;;;1.69;77.77;98076.22;6255661;23;20072;-86
2023/01/25 05:43:11;;;;;;;20.70;12.82;;;;;;;1.74;77.56;98076.78;6256362;23;20464;-83
2023/01/25 05:45:39;;;;;;;18.52;11.05;;;;;;;1.76;77.30;98070.63;6255386;23;20103;-80
2023/01/25 05:48:08;;;;;;;17.60;11.05;;;;;;;1.78;77.03;98075.69;6254288;23;20121;-83
2023/01/25 05:50:35;;;;;;;17.00;10.45;;;;;;;1.78;77.28;98062.81;6256133;23;20024;-83
2023/01/25 05:53:03;;;;;;;20.77;12.70;;;;;;;1.81;77.56;98067.78;6255597;23;20020;-83
2023/01/25 05:55:30;;;;;;;19.05;11.13;;;;;;;1.81;77.27;98072.91;6255412;23;20027;-80
2023/01/25 05:57:58;;;;;;;20.50;11.80;;;;;;;1.82;77.18;98062.53;6254459;23;20035;-82
2023/01/25 06:00:25;;;;;;;19.02;11.60;;;;;;;1.88;77.46;98065.66;6254611;23;20100;-82
2023/01/25 06:02:55;;;;;;;24.17;12.77;;;;;;;1.94;77.36;98075.59;6255411;23;20016;-83
2023/01/25 06:05:24;;;;;;;19.30;11.77;;;;;;;1.96;78.24;98061.72;6253326;23;20016;-84
2023/01/25 06:07:52;;;;;;;22.75;13.88;;;;;;;2.01;78.18;98071.72;6254398;23;20095;-81
2023/01/25 06:10:19;;;;;;;20.40;11.82;;;;;;;2.03;77.69;98057.88;6255121;23;20024;-85
2023/01/25 06:12:47;;;;;;;19.98;12.60;;;;;;;2.05;77.48;98058.56;6255357;23;20020;-82
2023/01/25 06:15:15;;;;;;;20.10;11.52;;;;;;;2.05;76.93;98050.84;6254473;23;20099;-84
2023/01/25 06:17:42;;;;;;;21.38;12.48;;;;;;;2.05;76.79;98053.44;6254563;23;20051;-80
2023/01/25 06:20:11;;;;;;;20.20;12.45;;;;;;;2.07;77.04;98048.19;6254064;23;20107;-83
2023/01/25 06:22:40;;;;;;;22.65;13.60;;;;;;;2.08;76.90;98047.28;6253661;23;20016;-82
2023/01/25 06:25:08;;;;;;;20.60;12.30;;;;;;;2.10;76.79;98054.91;6253942;23;20468;-79
2023/01/25 06:27:36;;;;;;;20.92;12.43;;;;;;;2.09;76.28;98042.97;6254143;23;20020;-83
2023/01/25 06:30:05;;;;;;;20.48;12.10;;;;;;;2.06;76.46;98044.81;6253949;23;20031;-84
2023/01/25 06:32:32;;;;;;;18.80;11.80;;;;;;;2.05;76.50;98048.28;6255467;23;20055;-82
2023/01/25 06:35:00;;;;;;;18.95;12.18;;;;;;;2.04;76.16;98043.25;6254458;23;20039;-82
2023/01/25 06:37:27;;;;;;;19.88;12.40;;;;;;;2.01;76.06;98044.25;6251504;23;20028;-78
2023/01/25 06:39:56;;;;;;;17.75;11.63;;;;;;;1.99;75.91;98045.25;6250376;23;20024;-79
2023/01/25 06:42:24;;;;;;;17.65;11.23;;;;;;;1.96;75.90;98048.03;6251605;23;20091;-78
2023/01/25 06:44:52;;;;;;;19.90;11.98;;;;;;;1.92;75.76;98044.78;6253508;23;20099;-81
2023/01/25 06:47:19;;;;;;;18.15;11.02;;;;;;;1.90;75.86;98058.69;6265656;23;20051;-84
2023/01/25 06:49:47;;;;;;;19.90;11.95;;;;;;;1.85;76.10;98052.06;6256902;23;20095;-84
2023/01/25 06:52:15;;;;;;;22.63;14.10;;;;;;;1.88;76.27;98055.38;6257318;23;20095;-81
2023/01/25 06:54:42;;;;;;;20.45;12.10;;;;;;;1.93;76.79;98050.78;6256840;23;20020;-81
2023/01/25 06:57:11;;;;;;;19.90;12.68;;;;;;;1.97;77.14;98050.50;6257229;23;20059;-79
2023/01/25 06:59:39;;;;;;;20.10;12.15;;;;;;;1.99;77.11;98056.41;6264826;23;20024;-90
2023/01/25 07:02:06;;;;;;;19.67;11.88;;;;;;;2.01;76.39;98051.13;6266800;23;20044;-88
2023/01/25 07:04:34;;;;;;;18.92;11.65;;;;;;;2.00;76.15;98052.06;6268015;22;20008;-85
2023/01/25 07:07:03;;;;;;;22.05;13.40;;;;;;;1.99;76.08;98053.81;6265153;22;20070;-83
2023/01/25 07:09:31;;;;;;;20.25;12.07;;;;;;;2.02;76.41;98051.06;6266699;23;20020;-89
2023/01/25 07:12:03;;;;;;;23.15;13.55;;;;;;;2.05;76.24;98050.84;6272487;22;20008;-86
2023/01/25 07:14:33;;;;;;;22.48;14.07;;;;;;;2.09;76.36;98045.53;6272273;23;20005;-81
2023/01/25 07:17:00;;;;;;;27.10;15.40;;;;;;;2.08;76.06;98046.44;6270394;22;20030;-87
2023/01/25 07:19:30;;;;;;;27.23;16.23;;;;;;;2.04;75.76;98043.25;6268865;23;20078;-87
2023/01/25 07:21:58;;;;;;;23.70;14.27;;;;;;;2.01;76.21;98040.84;6265697;23;20050;-83
2023/01/25 07:24:27;;;;;;;22.35;13.82;;;;;;;2.02;76.82;98030.47;6268417;23;20039;-83
2023/01/25 07:26:56;;;;;;;23.00;12.77;;;;;;;2.02;76.88;98030.47;6270930;23;20020;-84
2023/01/25 07:29:24;;;;;;;23.15;13.48;;;;;;;2.05;77.79;98040.56;6269252;23;20103;-83
2023/01/25 07:31:58;;;;;;;18.35;11.43;;;;;;;2.08;78.38;98024.13;6267876;23;20043;-85
2023/01/25 07:34:27;;;;;;;19.58;12.50;;;;;;;2.13;78.45;98019.50;6264711;23;20407;-86
2023/01/25 07:36:55;;;;;;;18.50;11.75;;;;;;;2.15;78.01;98027.97;6264453;23;20295;-84
2023/01/25 07:39:23;;;;;;;18.98;11.30;;;;;;;2.19;77.79;98031.19;6264716;23;20056;-82
2023/01/25 07:41:51;;;;;;;25.15;14.18;;;;;;;2.18;76.82;98027.78;6268258;22;20023;-87
2023/01/25 07:44:18;;;;;;;29.52;14.13;;;;;;;2.13;76.19;98026.41;6266559;23;20020;-84
2023/01/25 07:46:47;;;;;;;24.95;14.63;;;;;;;2.08;75.76;98031.84;6264614;23;20047;-84
2023/01/25 07:49:16;;;;;;;23.85;14.73;;;;;;;2.05;76.65;98032.03;6259787;23;20020;-83
2023/01/25 07:51:45;;;;;;;18.88;11.20;;;;;;;2.04;76.84;98032.94;6262922;23;20024;-83
2023/01/25 07:54:13;;;;;;;20.45;12.75;;;;;;;1.97;76.00;98027.34;6264405;23;20028;-83
2023/01/25 07:56:41;;;;;;;20.45;12.10;;;;;;;1.92;76.00;98029.34;6257205;23;20356;-85
2023/01/25 07:59:10;;;;;;;22.05;12.48;;;;;;;1.91;76.11;98030.28;6256508;23;20103;-88
2023/01/25 08:01:39;;;;;;;25.00;15.30;;;;;;;1.91;76.27;98025.16;6259510;23;20024;-92
2023/01/25 08:04:07;;;;;;;27.55;15.80;;;;;;;1.89;75.95;98026.97;6253701;23;20048;-88
2023/01/25 08:06:38;;;;;;;25.17;14.93;;;;;;;1.90;76.03;98027.81;6251402;23;20435;-84
2023/01/25 08:09:08;;;;;;;28.02;15.43;;;;;;;1.91;75.85;98027.72;6250328;23;20070;-90
2023/01/25 08:11:36;;;;;;;31.48;15.82;;;;;;;1.91;76.17;98024.31;6249544;23;20020;-85
2023/01/25 08:14:04;;;;;;;24.77;15.13;;;;;;;1.88;75.65;98025.34;6249631;23;20103;-85
2023/01/25 08:16:32;;;;;;;34.22;17.92;;;;;;;1.83;75.93;98020.44;6251468;23;20385;-85
2023/01/25 08:19:01;;;;;;;32.40;17.25;;;;;;;1.81;76.14;98018.88;6251990;23;20081;-86
2023/01/25 08:21:34;;;;;;;28.58;15.88;;;;;;;1.82;76.73;98023.13;6254545;23;20020;-85
2023/01/25 08:24:05;;;;;;;28.50;16.42;;;;;;;1.83;76.39;98020.44;6250052;23;20020;-87
2023/01/25 08:26:34;;;;;;;29.30;15.80;;;;;;;1.85;76.23;98023.75;6251254;23;20040;-88
2023/01/25 08:29:02;;;;;;;28.85;16.38;;;;;;;1.86;76.19;98024.59;6248448;23;20103;-87
2023/01/25 08:31:32;;;;;;;31.77;16.98;;;;;;;1.88;76.12;98033.06;6251062;23;20475;-88
2023/01/25 08:34:00;;;;;;;27.92;15.90;;;;;;;1.88;76.14;98025.34;6250176;23;20039;-91
2023/01/25 08:36:28;;;;;;;30.33;15.82;;;;;;;1.85;75.94;98031.47;6253395;23;20016;-91
2023/01/25 08:38:58;;;;;;;34.92;18.83;;;;;;;1.85;76.12;98025.50;6249905;23;20047;-85
2023/01/25 08:41:29;;;;;;;38.72;19.60;;;;;;;1.83;76.21;98028.16;6252484;23;20023;-86
2023/01/25 08:43:57;;;;;;;36.60;17.73;;;;;;;1.83;76.15;98032.50;6250311;23;20456;-83
2023/01/25 08:46:28;;;;;;;38.10;18.40;;;;;;;1.83;76.21;98030.72;6250795;23;20095;-91
2023/01/25 08:48:59;;;;;;;29.60;15.50;;;;;;;1.83;76.51;98032.50;6249186;23;20023;-82
2023/01/25 08:51:28;;;;;;;27.52;15.70;;;;;;;1.84;76.38;98029.00;6248131;23;20099;-90
2023/01/25 08:53:55;;;;;;;26.38;15.82;;;;;;;1.84;76.27;98027.25;6250258;23;20022;-85
2023/01/25 08:56:23;;;;;;;26.23;14.13;;;;;;;1.85;76.57;98010.06;6249465;23;20022;-84
2023/01/25 08:58:52;;;;;;;30.65;17.17;;;;;;;1.83;76.04;98005.00;6247876;23;20095;-87
2023/01/25 09:01:20;;;;;;;26.02;15.15;;;;;;;1.83;76.04;98011.91;6248250;23;20059;-80
2023/01/25 09:03:50;;;;;;;24.13;14.75;;;;;;;1.81;76.20;98013.75;6249062;23;20561;-85
2023/01/25 09:06:18;;;;;;;25.48;15.07;;;;;;;1.81;76.14;98008.59;6248196;23;20095;-89
2023/01/25 09:08:46;;;;;;;27.00;15.95;;;;;;;1.80;76.51;98006.97;6258913;23;20035;-86
2023/01/25 09:11:16;;;;;;;27.83;14.43;;;;;;;1.82;76.48;98005.94;6269652;23;20330;-86
2023/01/25 09:13:44;;;;;;;27.30;15.55;;;;;;;1.86;76.54;98001.44;6264187;23;20098;-89
2023/01/25 09:16:15;;;;;;;23.27;14.32;;;;;;;1.88;76.81;97999.59;6261270;23;20120;-90
2023/01/25 09:18:45;;;;;;;24.75;14.23;;;;;;;1.93;76.61;98001.91;6254388;23;20024;-87
2023/01/25 09:21:18;;;;;;;22.98;13.40;;;;;;;1.96;76.49;98002.53;6256469;23;20433;-87
2023/01/25 09:23:49;;;;;;;25.48;13.75;;;;;;;1.97;76.29;98001.63;6255442;23;20055;-86
2023/01/25 09:26:31;;;;;;;24.50;14.85;;;;;;;1.99;76.39;98001.50;6256097;23;20020;-89
2023/01/25 09:28:59;;;;;;;35.33;18.20;;;;;;;2.01;76.06;97990.22;6253664;23;20020;-86
2023/01/25 09:31:28;;;;;;;33.30;18.38;;;;;;;2.05;76.33;97991.66;6252817;23;20018;-85
2023/01/25 09:33:57;;;;;;;29.42;17.02;;;;;;;2.06;75.84;97988.19;6255783;23;20351;-86
2023/01/25 09:36:25;;;;;;;29.00;14.80;;;;;;;2.05;75.72;97986.50;6255516;23;20063;-89
2023/01/25 09:38:53;;;;;;;25.65;14.07;;;;;;;2.03;75.83;97982.38;6250574;23;20043;-86
2023/01/25 09:41:33;;;;;;;27.50;14.60;;;;;;;1.99;75.69;97986.91;6254334;23;20020;-84
2023/01/25 09:44:15;;;;;;;27.30;14.20;;;;;;;1.98;76.25;97974.94;6258184;23;20436;-91
2023/01/25 09:46:47;;;;;;;29.05;15.52;;;;;;;2.00;77.49;97980.81;6255029;23;20405;-87
2023/01/25 09:49:34;;;;;;;28.63;16.45;;;;;;;2.02;77.22;97976.41;6260254;23;20030;-84
2023/01/25 09:52:23;;;;;;;29.95;16.52;;;;;;;2.08;77.56;97982.94;6238751;22;20020;-75
2023/01/25 09:54:51;;;;;;;29.13;16.33;;;;;;;2.10;76.62;97978.53;6215366;23;20038;-74
2023/01/25 09:57:30;;;;;;;27.88;15.90;;;;;;;2.08;75.84;97979.53;6216010;23;20059;-76
2023/01/25 10:00:01;;;;;;;31.52;16.25;;;;;;;2.04;75.76;97982.28;6215128;23;20025;-74
2023/01/25 10:02:40;;;;;;;34.10;16.52;;;;;;;2.02;75.83;97978.16;6232127;23;20104;-75
2023/01/25 10:05:13;;;;;;;38.40;15.85;;;;;;;1.99;76.22;97980.91;6246188;23;20103;-75
2023/01/25 10:07:55;;;;;;;32.65;16.60;;;;;;;1.95;76.25;97980.28;6246176;23;20067;-76
2023/01/25 10:10:30;;;;;;;30.85;16.40;;;;;;;1.94;76.24;97977.81;6246270;23;20020;-75
2023/01/25 10:12:57;;;;;;;29.77;16.67;;;;;;;1.92;76.22;97972.75;6246775;23;20034;-75
2023/01/25 10:15:31;;;;;;;32.33;17.08;;;;;;;1.90;76.08;97966.88;6246615;23;20341;-75
2023/01/25 10:18:05;;;;;;;29.25;17.45;;;;;;;1.88;76.32;97980.75;6245943;23;20095;-75
2023/01/25 10:20:40;;;;;;;27.33;15.75;;;;;;;1.87;76.21;97977.34;6244195;23;20020;-75
2023/01/25 10:23:27;;;;;;;32.30;15.88;;;;;;;1.85;76.67;97976.63;6245984;23;20031;-75
2023/01/25 10:25:58;;;;;;;31.05;14.98;;;;;;;1.85;76.41;97974.03;6245126;23;20938;-76
2023/01/25 10:28:40;;;;;;;31.55;16.00;;;;;;;1.88;76.58;97970.44;6245842;23;20070;-76
2023/01/25 10:31:17;;;;;;;30.40;16.17;;;;;;;1.87;76.19;97961.91;6247894;23;20051;-74
2023/01/25 10:33:48;;;;;;;29.35;15.57;;;;;;;1.87;77.03;97955.94;6247824;23;20403;-76
2023/01/25 10:36:17;;;;;;;30.77;16.58;;;;;;;1.91;76.65;97958.25;6245925;23;20474;-75
2023/01/25 10:38:47;;;;;;;28.13;15.32;;;;;;;1.91;76.75;97958.25;6245576;23;20020;-75
2023/01/25 10:41:21;;;;;;;30.08;15.48;;;;;;;1.93;77.25;97955.59;6245785;23;20020;-76
2023/01/25 10:44:20;;;;;;;26.08;14.93;;;;;;;1.94;76.91;97947.75;6245955;23;20352;-75
2023/01/25 10:46:38;;;;;;;32.13;16.90;;;;;;;1.95;76.57;97946.84;6245771;23;20022;-75
2023/01/25 10:49:20;;;;;;;32.08;17.73;;;;;;;1.98;76.90;97946.63;6244731;23;20031;-75
2023/01/25 10:51:47;;;;;;;29.70;15.82;;;;;;;2.03;76.93;97944.63;6245638;23;20027;-75
2023/01/25 10:54:16;;;;;;;29.00;15.77;;;;;;;2.05;76.80;97941.94;6246071;23;20020;-76
2023/01/25 10:56:45;;;;;;;30.20;16.95;;;;;;;2.03;76.09;97936.06;6245801;23;20020;-75
2023/01/25 10:59:20;;;;;;;31.05;16.40;;;;;;;2.02;77.01;97935.22;6244789;23;20024;-75
2023/01/25 11:01:47;;;;;;;26.90;13.82;;;;;;;2.04;76.94;97927.44;6245507;23;20028;-76
2023/01/25 11:04:31;;;;;;;27.67;15.70;;;;;;;2.05;76.35;97927.31;6245661;23;20052;-76
2023/01/25 11:06:59;;;;;;;28.67;14.45;;;;;;;2.03;76.17;97926.59;6262995;23;20063;-76
2023/01/25 11:09:38;;;;;;;23.13;13.55;;;;;;;2.04;76.20;97922.28;6261651;23;20044;-75
2023/01/25 11:12:17;;;;;;;24.38;13.10;;;;;;;2.03;75.93;97925.75;6247130;23;20016;-75
2023/01/25 11:14:48;;;;;;;24.45;13.82;;;;;;;2.00;75.77;97920.81;6246385;23;20046;-75
2023/01/25 11:17:29;;;;;;;26.77;14.88;;;;;;;1.95;75.69;97915.97;6245641;23;20020;-75
2023/01/25 11:20:18;;;;;;;22.33;13.23;;;;;;;1.93;75.59;97919.56;6245300;23;20055;-75
2023/01/25 11:22:50;;;;;;;23.25;12.43;;;;;;;1.92;75.44;97916.13;6245325;23;20024;-74
2023/01/25 11:25:26;;;;;;;22.35;11.50;;;;;;;1.89;75.62;97908.63;6246019;23;20095;-75
2023/01/25 11:28:10;;;;;;;25.75;13.60;;;;;;;1.88;75.53;97911.28;6244836;23;20023;-75
2023/01/25 11:30:38;;;;;;;27.15;14.55;;;;;;;1.87;75.80;97907.06;6246210;23;20031;-75
2023/01/25 11:33:11;;;;;;;26.98;13.60;;;;;;;1.85;75.82;97907.97;6245671;23;20024;-75
2023/01/25 11:35:52;;;;;;;23.92;13.10;;;;;;;1.87;76.33;97901.91;6245507;23;20074;-75
2023/01/25 11:38:23;;;;;;;21.42;12.32;;;;;;;1.87;76.17;97897.59;6245116;23;20355;-75
2023/01/25 11:41:01;;;;;;;23.88;12.18;;;;;;;1.86;75.84;97893.38;6246304;23;20024;-76
2023/01/25 11:43:45;;;;;;;25.60;13.40;;;;;;;1.86;75.84;97883.09;6246314;23;20051;-75